Time,TemperatureF,DewpointF,PressureIn,WindDirection,WindDirectionDegrees,WindSpeedMPH,WindSpeedGustMPH,Humidity,HourlyPrecipIn,Conditions,Clouds,dailyrainin,SoftwareType,DateUTC
2013-08-24 00:24:00,61.0,59.0,30.17,SE,137,0.0,0.0,93,0.00,,,0.00,,2013-08-24 04:24:00,
2013-08-24 00:54:00,60.0,58.0,30.18,SE,137,0.0,0.0,93,0.00,,,0.00,,2013-08-24 04:54:00,
2013-08-24 01:23:00,60.0,58.0,30.18,SE,134,0.0,0.0,94,0.00,,,0.00,,2013-08-24 05:23:00,
2013-08-24 01:53:00,63.0,58.0,30.19,East,97,0.0,0.0,84,0.00,,,0.00,,2013-08-24 05:53:00,
2013-08-24 02:22:00,62.0,56.0,30.19,NE,54,0.0,0.0,80,0.00,,,0.00,,2013-08-24 06:22:00,
2013-08-24 02:52:00,62.0,54.0,30.20,NNE,16,0.0,6.0,76,0.00,,,0.00,,2013-08-24 06:52:00,
2013-08-24 03:12:00,62.0,55.0,30.20,NNE,16,0.0,6.0,77,0.00,,,0.00,,2013-08-24 07:12:00,
2013-08-24 03:22:00,61.0,54.0,30.21,NNE,23,0.0,6.0,78,0.00,,,0.00,,2013-08-24 07:22:00,
2013-08-24 03:53:00,60.0,53.0,30.21,NNE,23,0.0,0.0,79,0.00,,,0.00,,2013-08-24 07:53:00,
2013-08-24 04:22:00,60.0,53.0,30.22,NNE,27,6.0,0.0,77,0.00,,,0.00,,2013-08-24 08:22:00,
2013-08-24 04:52:00,60.0,53.0,30.23,NNE,33,0.0,2.0,77,0.00,,,0.00,,2013-08-24 08:52:00,
2013-08-24 05:22:00,59.0,52.0,30.24,NE,45,3.0,3.0,78,0.00,,,0.00,,2013-08-24 09:22:00,
2013-08-24 05:53:00,58.0,52.0,30.25,NE,44,0.0,5.0,79,0.00,,,0.00,,2013-08-24 09:53:00,
2013-08-24 06:23:00,58.0,52.0,30.26,NE,42,0.0,5.0,80,0.00,,,0.00,,2013-08-24 10:23:00,
2013-08-24 06:53:00,57.0,51.0,30.27,NE,47,0.0,1.0,80,0.00,,,0.00,,2013-08-24 10:53:00,
2013-08-24 07:03:00,57.0,51.0,30.27,NE,47,0.0,1.0,80,0.00,,,0.00,,2013-08-24 11:03:00,
2013-08-24 07:22:00,59.0,52.0,30.29,NE,42,0.0,1.0,78,0.00,,,0.00,,2013-08-24 11:22:00,
2013-08-24 07:52:00,60.0,52.0,30.29,ENE,68,0.0,0.0,76,0.00,,,0.00,,2013-08-24 11:52:00,
2013-08-24 08:21:00,62.0,53.0,30.30,North,7,3.0,0.0,72,0.00,,,0.00,,2013-08-24 12:21:00,
2013-08-24 08:52:00,64.0,54.0,30.31,NE,52,3.0,3.0,70,0.00,,,0.00,,2013-08-24 12:52:00,
2013-08-24 09:22:00,66.0,56.0,30.31,NE,42,10.0,10.0,69,0.00,,,0.00,,2013-08-24 13:22:00,
2013-08-24 09:52:00,68.0,56.0,30.32,NE,43,0.0,12.0,65,0.00,,,0.00,,2013-08-24 13:52:00,
2013-08-24 10:11:00,68.0,54.0,30.33,NNE,33,2.0,12.0,62,0.00,,,0.00,,2013-08-24 14:11:00,
2013-08-24 10:22:00,68.0,54.0,30.33,NNE,33,2.0,12.0,62,0.00,,,0.00,,2013-08-24 14:22:00,
2013-08-24 10:52:00,71.0,54.0,30.34,ENE,64,0.0,10.0,56,0.00,,,0.00,,2013-08-24 14:52:00,
2013-08-24 11:22:00,72.0,53.0,30.34,NNE,25,4.0,10.0,52,0.00,,,0.00,,2013-08-24 15:22:00,
2013-08-24 11:54:00,73.0,53.0,30.34,North,2,3.0,8.0,50,0.00,,,0.00,,2013-08-24 15:54:00,
2013-08-24 12:13:00,73.0,53.0,30.34,NE,52,5.0,8.0,49,0.00,,,0.00,,2013-08-24 16:13:00,
2013-08-24 12:23:00,73.0,53.0,30.34,NE,52,5.0,8.0,49,0.00,,,0.00,,2013-08-24 16:23:00,
2013-08-24 12:53:00,74.0,53.0,30.33,NW,322,0.0,8.0,48,0.00,,,0.00,,2013-08-24 16:53:00,
2013-08-24 13:23:00,75.0,51.0,30.33,NNE,29,5.0,8.0,43,0.00,,,0.00,,2013-08-24 17:23:00,
2013-08-24 13:52:00,75.0,52.0,30.33,NNE,28,6.0,7.0,44,0.00,,,0.00,,2013-08-24 17:52:00,
2013-08-24 14:22:00,76.0,52.0,30.34,NNE,23,0.0,7.0,43,0.00,,,0.00,,2013-08-24 18:22:00,
2013-08-24 14:53:00,76.0,52.0,30.33,North,11,4.0,4.0,43,0.00,,,0.00,,2013-08-24 18:53:00,
2013-08-24 15:22:00,76.0,51.0,30.34,East,81,3.0,4.0,41,0.00,,,0.00,,2013-08-24 19:22:00,
2013-08-24 15:52:00,77.0,49.0,30.33,ENE,75,0.0,6.0,37,0.00,,,0.00,,2013-08-24 19:52:00,
2013-08-24 16:22:00,76.0,57.0,30.34,East,79,0.0,6.0,51,0.00,,,0.00,,2013-08-24 20:22:00,
2013-08-24 16:53:00,74.0,56.0,30.34,East,79,8.0,8.0,54,0.00,,,0.00,,2013-08-24 20:53:00,
2013-08-24 17:22:00,72.0,57.0,30.34,East,85,5.0,5.0,59,0.00,,,0.00,,2013-08-24 21:22:00,
2013-08-24 17:54:00,72.0,56.0,30.34,NE,39,3.0,0.0,57,0.00,,,0.00,,2013-08-24 21:54:00,
2013-08-24 18:24:00,71.0,55.0,30.34,East,80,2.0,0.0,57,0.00,,,0.00,,2013-08-24 22:24:00,
2013-08-24 18:53:00,70.0,57.0,30.35,South,184,0.0,1.0,64,0.00,,,0.00,,2013-08-24 22:53:00,
2013-08-24 19:22:00,68.0,57.0,30.35,South,177,0.0,1.0,69,0.00,,,0.00,,2013-08-24 23:22:00,
2013-08-24 19:53:00,66.0,58.0,30.36,South,177,0.0,0.0,75,0.00,,,0.00,,2013-08-24 23:53:00,
2013-08-24 20:22:00,64.0,57.0,30.37,South,178,0.0,0.0,78,0.00,,,0.00,,2013-08-25 00:22:00,
2013-08-24 20:52:00,63.0,57.0,30.38,South,177,0.0,0.0,81,0.00,,,0.00,,2013-08-25 00:52:00,
2013-08-24 21:01:00,63.0,57.0,30.38,South,177,0.0,0.0,81,0.00,,,0.00,,2013-08-25 01:01:00,
2013-08-24 21:22:00,61.0,56.0,30.39,South,178,0.0,0.0,84,0.00,,,0.00,,2013-08-25 01:22:00,
2013-08-24 21:52:00,59.0,55.0,30.39,South,178,0.0,0.0,88,0.00,,,0.00,,2013-08-25 01:52:00,
2013-08-24 22:22:00,58.0,55.0,30.40,South,178,0.0,0.0,90,0.00,,,0.00,,2013-08-25 02:22:00,
2013-08-24 22:52:00,57.0,54.0,30.40,South,177,0.0,0.0,91,0.00,,,0.00,,2013-08-25 02:52:00,
2013-08-24 23:23:00,56.0,54.0,30.40,South,177,0.0,0.0,92,0.00,,,0.00,,2013-08-25 03:23:00,
2013-08-24 23:54:00,55.0,53.0,30.40,South,178,0.0,0.0,93,0.00,,,0.00,,2013-08-25 03:54:00,